createdAt,value
2018-05-15T00:00:35.938Z,15.62
2018-05-15T00:01:56.646Z,15.59
2018-05-15T00:02:57.266Z,15.58
2018-05-15T00:03:56.818Z,15.55
2018-05-15T00:04:56.380Z,15.47
2018-05-15T00:05:57.642Z,15.47
2018-05-15T00:06:57.684Z,15.43
2018-05-15T00:07:56.400Z,15.42
2018-05-15T00:08:57.431Z,15.42
2018-05-15T00:09:56.928Z,15.42
2018-05-15T00:10:56.497Z,15.36
2018-05-15T00:11:57.210Z,15.35
2018-05-15T00:12:56.904Z,15.35
2018-05-15T00:13:56.578Z,15.35
2018-05-15T00:14:57.613Z,15.33
2018-05-15T00:15:57.466Z,15.29
2018-05-15T00:16:56.987Z,15.28
2018-05-15T00:17:56.879Z,15.27
2018-05-15T00:18:56.402Z,15.28
2018-05-15T00:19:57.427Z,15.27
2018-05-15T00:20:57.348Z,15.27
2018-05-15T00:23:21.420Z,15.24
2018-05-15T00:24:21.101Z,15.22
2018-05-15T00:25:21.843Z,15.22
2018-05-15T00:26:43.106Z,15.22
2018-05-15T00:27:42.698Z,15.19
2018-05-15T00:28:42.257Z,15.21
2018-05-15T00:29:43.784Z,15.21
2018-05-15T00:31:05.507Z,15.18
2018-05-15T00:32:06.361Z,15.17
2018-05-15T00:33:06.388Z,15.17
2018-05-15T00:34:05.905Z,15.15
2018-05-15T00:35:05.387Z,15.15
2018-05-15T00:36:06.268Z,15.11
2018-05-15T00:37:05.919Z,15.10
2018-05-15T00:38:05.835Z,15.06
2018-05-15T00:39:46.496Z,15.02
2018-05-15T00:40:46.500Z,14.99
2018-05-15T00:41:47.169Z,14.97
2018-05-15T00:42:46.867Z,14.94
2018-05-15T00:43:46.842Z,14.92
2018-05-15T00:44:46.432Z,14.91
2018-05-15T00:45:47.091Z,14.86
2018-05-15T00:46:47.025Z,14.84
2018-05-15T00:47:46.603Z,14.82
2018-05-15T00:49:06.739Z,14.82
2018-05-15T00:50:27.815Z,14.81
2018-05-15T00:51:28.502Z,14.82
2018-05-15T00:52:28.242Z,14.81
2018-05-15T00:53:28.324Z,14.84
2018-05-15T00:54:28.466Z,14.85
2018-05-15T00:55:27.903Z,14.82
2018-05-15T00:56:28.406Z,14.84
2018-05-15T00:57:28.023Z,14.82
2018-05-15T00:58:49.180Z,14.78
2018-05-15T00:59:50.239Z,14.73
2018-05-15T01:00:49.774Z,14.70
2018-05-15T01:01:49.528Z,14.66
2018-05-15T01:02:50.860Z,14.68
2018-05-15T01:03:49.430Z,14.68
2018-05-15T01:04:50.343Z,14.68
2018-05-15T01:05:50.473Z,14.63
2018-05-15T01:06:50.023Z,14.65
2018-05-15T01:07:49.785Z,14.65
2018-05-15T01:08:49.624Z,14.65
2018-05-15T01:10:09.322Z,14.65
2018-05-15T01:11:10.011Z,14.65
2018-05-15T01:12:52.156Z,14.60
2018-05-15T01:13:50.775Z,14.54
2018-05-15T01:14:51.342Z,14.55
2018-05-15T01:15:51.002Z,14.54
2018-05-15T01:16:51.045Z,14.55
2018-05-15T01:17:50.718Z,14.59
2018-05-15T01:19:12.817Z,14.58
2018-05-15T01:20:12.366Z,14.59
2018-05-15T01:21:13.007Z,14.62
2018-05-15T01:22:33.329Z,14.63
2018-05-15T01:23:33.329Z,14.62
2018-05-15T01:24:54.435Z,14.65
2018-05-15T01:25:54.963Z,14.68
2018-05-15T01:26:55.108Z,14.69
2018-05-15T01:27:55.169Z,14.69
2018-05-15T01:28:54.846Z,14.69
2018-05-15T01:29:54.782Z,14.69
2018-05-15T01:30:55.740Z,14.68
2018-05-15T01:31:54.844Z,14.68
2018-05-15T01:32:54.653Z,14.65
2018-05-15T01:33:54.978Z,14.63
2018-05-15T01:34:54.576Z,14.62
2018-05-15T01:35:54.667Z,14.63
2018-05-15T01:37:15.681Z,14.55
2018-05-15T01:38:16.545Z,14.55
2018-05-15T01:39:16.095Z,14.54
2018-05-15T01:40:16.075Z,14.50
2018-05-15T01:41:15.755Z,14.53
2018-05-15T01:42:16.780Z,14.51
2018-05-15T01:43:16.922Z,14.50
2018-05-15T01:44:37.091Z,14.47
2018-05-15T01:45:37.983Z,14.45
2018-05-15T01:46:58.409Z,14.44
2018-05-15T01:48:00.708Z,14.44
2018-05-15T01:48:59.579Z,14.45
2018-05-15T01:49:59.547Z,14.43
2018-05-15T01:51:00.225Z,14.43
2018-05-15T01:51:58.740Z,14.41
2018-05-15T01:52:59.368Z,14.40
2018-05-15T01:53:59.419Z,14.35
2018-05-15T01:54:59.279Z,14.35
2018-05-15T01:55:59.338Z,14.32
2018-05-15T01:57:00.107Z,14.33
2018-05-15T01:58:20.607Z,14.28
2018-05-15T01:59:21.130Z,14.28
2018-05-15T02:00:20.700Z,14.26
2018-05-15T02:01:20.365Z,14.22
2018-05-15T02:02:20.967Z,14.20
2018-05-15T02:03:20.492Z,14.18
2018-05-15T02:04:21.456Z,14.20
2018-05-15T02:05:21.526Z,14.18
2018-05-15T02:06:21.495Z,14.18
2018-05-15T02:07:20.573Z,14.15
2018-05-15T02:08:21.055Z,14.11
2018-05-15T02:09:20.661Z,14.14
2018-05-15T02:10:20.284Z,14.14
2018-05-15T02:11:21.203Z,14.14
2018-05-15T02:12:20.773Z,14.12
2018-05-15T02:13:41.025Z,14.15
2018-05-15T02:14:41.992Z,14.17
2018-05-15T02:15:41.717Z,14.15
2018-05-15T02:16:41.807Z,14.14
2018-05-15T02:17:41.571Z,14.12
2018-05-15T02:18:41.579Z,14.11
2018-05-15T02:19:42.312Z,14.11
2018-05-15T02:20:42.190Z,14.14
2018-05-15T02:21:42.114Z,14.12
2018-05-15T02:22:41.649Z,14.11
2018-05-15T02:24:01.496Z,14.11
2018-05-15T02:25:02.487Z,14.12
2018-05-15T02:26:02.013Z,14.14
2018-05-15T02:27:02.097Z,14.12
2018-05-15T02:28:01.692Z,14.12
2018-05-15T02:29:03.875Z,14.12
2018-05-15T02:30:02.518Z,14.14
2018-05-15T02:31:02.972Z,14.12
2018-05-15T02:32:21.957Z,14.12
2018-05-15T02:33:22.946Z,14.14
2018-05-15T02:34:23.035Z,14.12
2018-05-15T02:35:22.486Z,14.12
2018-05-15T02:36:22.261Z,14.14
2018-05-15T02:37:22.353Z,14.14
2018-05-15T02:38:22.318Z,14.14
2018-05-15T02:39:22.884Z,14.17
2018-05-15T02:40:22.546Z,14.15
2018-05-15T02:41:22.684Z,14.14
2018-05-15T02:42:22.641Z,14.12
2018-05-15T02:43:22.536Z,14.11
2018-05-15T02:44:22.284Z,14.12
2018-05-15T02:45:21.996Z,14.14
2018-05-15T02:46:23.690Z,14.12
2018-05-15T02:47:22.720Z,14.12
2018-05-15T02:48:22.304Z,14.12
2018-05-15T02:49:22.086Z,14.10
2018-05-15T02:50:22.883Z,14.08
2018-05-15T02:51:22.496Z,14.08
2018-05-15T02:52:42.913Z,14.05
2018-05-15T02:53:43.341Z,14.05
2018-05-15T02:54:42.995Z,14.03
2018-05-15T02:55:43.119Z,13.97
2018-05-15T02:56:43.258Z,13.95
2018-05-15T02:58:03.978Z,13.93
2018-05-15T02:59:04.614Z,13.93
2018-05-15T03:00:24.809Z,13.93
2018-05-15T03:01:25.906Z,13.93
2018-05-15T03:02:25.881Z,13.93
2018-05-15T03:03:25.544Z,13.95
2018-05-15T03:04:46.522Z,13.95
2018-05-15T03:05:54.891Z,13.92
2018-05-15T03:07:07.824Z,13.90
2018-05-15T03:08:08.798Z,13.89
2018-05-15T03:09:08.877Z,13.89
2018-05-15T03:10:07.857Z,13.86
2018-05-15T03:11:07.792Z,13.79
2018-05-15T03:12:07.865Z,13.75
2018-05-15T03:13:07.504Z,13.72
2018-05-15T03:14:49.624Z,13.65
2018-05-15T03:15:50.164Z,13.62
2018-05-15T03:17:10.246Z,13.62
2018-05-15T03:18:11.422Z,13.67
2018-05-15T03:19:11.482Z,13.67
2018-05-15T03:20:11.466Z,13.65
2018-05-15T03:21:11.089Z,13.60
2018-05-15T03:22:10.709Z,13.59
2018-05-15T03:23:10.316Z,13.56
2018-05-15T03:24:12.048Z,13.56
2018-05-15T03:25:10.885Z,13.52
2018-05-15T03:26:11.075Z,13.47
2018-05-15T03:27:11.138Z,13.49
2018-05-15T03:28:10.678Z,13.46
2018-05-15T03:29:10.413Z,13.42
2018-05-15T03:30:11.425Z,13.41
2018-05-15T03:31:11.349Z,13.41
2018-05-15T03:32:31.881Z,13.35
2018-05-15T03:33:31.926Z,13.30
2018-05-15T03:34:52.511Z,13.25
2018-05-15T03:36:14.268Z,13.25
2018-05-15T03:37:14.860Z,13.23
2018-05-15T03:38:15.382Z,13.22
2018-05-15T03:39:15.238Z,13.19
2018-05-15T03:40:28.060Z,13.19
2018-05-15T03:41:15.063Z,13.19
2018-05-15T03:42:35.746Z,13.19
2018-05-15T03:43:36.702Z,13.23
2018-05-15T03:44:36.422Z,13.25
2018-05-15T03:45:36.344Z,13.23
2018-05-15T03:46:36.024Z,13.23
2018-05-15T03:47:57.251Z,13.25
2018-05-15T03:48:58.342Z,13.25
2018-05-15T03:49:58.395Z,13.25
2018-05-15T03:50:57.949Z,13.22
2018-05-15T03:51:58.021Z,13.19
2018-05-15T03:52:57.615Z,13.19
2018-05-15T03:53:57.412Z,13.19
2018-05-15T03:54:58.335Z,13.18
2018-05-15T03:55:58.028Z,13.18
2018-05-15T03:56:57.777Z,13.20
2018-05-15T03:57:57.424Z,13.18
2018-05-15T03:58:58.548Z,13.18
2018-05-15T03:59:57.624Z,13.15
2018-05-15T04:00:57.492Z,13.15
2018-05-15T04:01:57.738Z,13.16
2018-05-15T04:02:57.872Z,13.15
2018-05-15T04:03:57.983Z,13.16
2018-05-15T04:04:58.018Z,13.16
2018-05-15T04:05:57.890Z,13.16
2018-05-15T04:06:58.033Z,13.15
2018-05-15T04:07:58.175Z,13.13
2018-05-15T04:08:57.884Z,13.11
2018-05-15T04:09:57.617Z,13.09
2018-05-15T04:10:57.823Z,13.09
2018-05-15T04:11:58.192Z,13.05
2018-05-15T04:12:58.116Z,13.04
2018-05-15T04:13:58.292Z,13.03
2018-05-15T04:14:57.862Z,13.04
2018-05-15T04:15:57.611Z,13.04
2018-05-15T04:16:57.699Z,13.05
2018-05-15T04:17:57.570Z,13.09
2018-05-15T04:18:57.743Z,13.11
2018-05-15T04:19:57.728Z,13.16
2018-05-15T04:20:57.655Z,13.16
2018-05-15T04:21:57.425Z,13.16
2018-05-15T04:22:58.202Z,13.20
2018-05-15T04:23:58.294Z,13.25
2018-05-15T04:24:58.052Z,13.28
2018-05-15T04:26:18.045Z,13.31
2018-05-15T04:27:18.709Z,13.31
2018-05-15T04:28:39.578Z,13.35
2018-05-15T04:29:39.549Z,13.39
2018-05-15T04:31:00.151Z,13.53
2018-05-15T04:32:01.362Z,13.75
2018-05-15T04:33:41.659Z,14.15
2018-05-15T04:35:03.470Z,14.37
2018-05-15T04:36:03.444Z,14.54
2018-05-15T04:37:03.671Z,14.68
2018-05-15T04:38:03.630Z,14.85
2018-05-15T04:39:03.272Z,15.03
2018-05-15T04:40:04.051Z,15.11
2018-05-15T04:41:04.057Z,15.06
2018-05-15T04:42:03.860Z,14.94
2018-05-15T04:43:03.451Z,14.86
2018-05-15T04:44:03.083Z,14.89
2018-05-15T04:45:03.953Z,14.96
2018-05-15T04:46:04.137Z,14.92
2018-05-15T04:47:03.899Z,14.88
2018-05-15T04:48:03.891Z,14.81
2018-05-15T04:49:03.484Z,14.73
2018-05-15T04:50:09.143Z,14.68
2018-05-15T04:51:07.664Z,14.65
2018-05-15T04:52:03.461Z,14.63
2018-05-15T04:53:25.503Z,14.60
2018-05-15T04:54:26.554Z,14.63
2018-05-15T04:55:26.714Z,14.65
2018-05-15T04:56:26.557Z,14.66
2018-05-15T04:57:26.525Z,14.62
2018-05-15T04:58:26.639Z,14.59
2018-05-15T04:59:26.824Z,14.54
2018-05-15T05:00:46.912Z,14.51
2018-05-15T05:01:47.684Z,14.51
2018-05-15T05:02:47.821Z,14.51
2018-05-15T05:03:46.925Z,14.50
2018-05-15T05:04:46.634Z,14.50
2018-05-15T05:05:47.461Z,14.47
2018-05-15T05:07:08.044Z,14.51
2018-05-15T05:08:08.869Z,14.53
2018-05-15T05:09:29.645Z,14.58
2018-05-15T05:10:29.358Z,14.59
2018-05-15T05:11:30.119Z,14.60
2018-05-15T05:12:30.287Z,14.62
2018-05-15T05:13:30.332Z,14.63
2018-05-15T05:14:30.477Z,14.68
2018-05-15T05:16:11.400Z,14.69
2018-05-15T05:17:11.493Z,14.72
2018-05-15T05:18:11.599Z,14.77
2018-05-15T05:19:32.403Z,14.86
2018-05-15T05:20:32.551Z,15.00
2018-05-15T05:21:32.268Z,15.25
2018-05-15T05:22:34.228Z,15.64
2018-05-15T05:23:32.117Z,15.98
2018-05-15T05:24:33.386Z,16.39
2018-05-15T05:25:32.143Z,16.76
2018-05-15T05:26:33.381Z,17.02
2018-05-15T05:27:33.045Z,17.34
2018-05-15T05:28:33.814Z,17.65
2018-05-15T05:29:33.087Z,17.90
2018-05-15T05:30:32.793Z,18.23
2018-05-15T05:31:53.697Z,18.52
2018-05-15T05:32:54.481Z,18.75
2018-05-15T05:33:54.874Z,18.98
2018-05-15T05:35:14.655Z,19.21
2018-05-15T05:36:15.620Z,19.36
2018-05-15T05:37:15.863Z,19.62
2018-05-15T05:38:15.599Z,19.89
2018-05-15T05:39:15.848Z,20.09
2018-05-15T05:40:14.691Z,20.32
2018-05-15T05:41:15.539Z,20.51
2018-05-15T05:42:15.260Z,20.65
2018-05-15T05:43:14.920Z,20.82
2018-05-15T05:44:15.170Z,20.85
2018-05-15T05:45:14.949Z,20.93
2018-05-15T05:46:36.092Z,20.99
2018-05-15T05:47:35.895Z,20.97
2018-05-15T05:48:57.155Z,21.00
2018-05-15T05:49:57.170Z,21.20
2018-05-15T05:50:56.880Z,21.29
2018-05-15T05:51:57.275Z,21.36
2018-05-15T05:52:57.238Z,21.48
2018-05-15T05:54:18.247Z,21.62
2018-05-15T05:55:17.899Z,21.60
2018-05-15T05:56:19.037Z,21.73
2018-05-15T05:57:18.125Z,21.89
2018-05-15T05:58:18.529Z,21.87
2018-05-15T05:59:18.364Z,21.98
2018-05-15T06:00:18.610Z,22.08
2018-05-15T06:01:19.077Z,22.07
2018-05-15T06:02:17.866Z,22.18
2018-05-15T06:03:19.013Z,22.33
2018-05-15T06:04:18.091Z,22.43
2018-05-15T06:05:17.831Z,22.51
2018-05-15T06:06:39.614Z,22.63
2018-05-15T06:07:40.358Z,22.85
2018-05-15T06:08:40.564Z,22.93
2018-05-15T06:09:40.149Z,22.94
2018-05-15T06:10:40.648Z,22.59
2018-05-15T06:11:40.230Z,22.65
2018-05-15T06:12:40.502Z,22.84
2018-05-15T06:13:40.616Z,23.13
2018-05-15T06:14:40.961Z,23.46
2018-05-15T06:15:39.816Z,23.28
2018-05-15T06:16:40.183Z,23.24
2018-05-15T06:18:01.123Z,23.37
2018-05-15T06:19:21.512Z,23.55
2018-05-15T06:20:22.306Z,23.50
2018-05-15T06:21:22.104Z,23.47
2018-05-15T06:22:22.206Z,23.59
2018-05-15T06:23:22.206Z,23.58
2018-05-15T06:24:22.028Z,23.59
2018-05-15T06:25:21.745Z,23.69
2018-05-15T06:26:22.067Z,23.84
2018-05-15T06:27:22.244Z,23.78
2018-05-15T06:28:22.451Z,23.99
2018-05-15T06:29:22.131Z,24.03
2018-05-15T06:30:21.838Z,24.20
2018-05-15T06:31:21.440Z,24.43
2018-05-15T06:32:22.324Z,24.73
2018-05-15T06:33:22.379Z,24.92
2018-05-15T06:34:22.208Z,25.11
2018-05-15T06:35:21.847Z,25.26
2018-05-15T06:36:21.607Z,25.23
2018-05-15T06:37:22.274Z,25.08
2018-05-15T06:38:22.527Z,24.78
2018-05-15T06:39:21.876Z,24.76
2018-05-15T06:41:07.597Z,25.16
2018-05-15T06:42:07.912Z,25.32
2018-05-15T06:43:08.049Z,25.17
2018-05-15T06:44:29.198Z,24.86
2018-05-15T06:45:30.510Z,25.03
2018-05-15T06:46:29.650Z,25.03
2018-05-15T06:47:29.647Z,25.03
2018-05-15T06:48:30.027Z,24.89
2018-05-15T06:49:29.297Z,24.55
2018-05-15T06:50:28.958Z,24.50
2018-05-15T06:51:29.785Z,24.63
2018-05-15T06:52:50.417Z,24.48
2018-05-15T06:53:51.724Z,24.48
2018-05-15T06:54:50.554Z,24.57
2018-05-15T06:55:50.470Z,24.78
2018-05-15T06:56:51.156Z,24.86
2018-05-15T06:57:50.926Z,24.92
2018-05-15T06:58:51.224Z,25.07
2018-05-15T06:59:51.129Z,25.32
2018-05-15T07:00:51.361Z,25.44
2018-05-15T07:02:11.771Z,25.54
2018-05-15T07:03:33.706Z,25.69
2018-05-15T07:04:34.451Z,25.81
2018-05-15T07:05:34.325Z,25.98
2018-05-15T07:06:34.194Z,26.18
2018-05-15T07:07:55.160Z,26.31
2018-05-15T07:08:55.607Z,26.33
2018-05-15T07:09:55.661Z,26.31
2018-05-15T07:10:55.509Z,26.40
2018-05-15T07:11:55.787Z,26.63
2018-05-15T07:12:56.144Z,26.78
2018-05-15T07:14:35.000Z,26.63
2018-05-15T07:15:34.931Z,26.56
2018-05-15T07:16:34.797Z,26.59
2018-05-15T07:17:34.547Z,26.78
2018-05-15T07:18:36.030Z,26.65
2018-05-15T07:19:35.084Z,26.71
2018-05-15T07:20:34.818Z,26.93
2018-05-15T07:21:35.044Z,27.14
2018-05-15T07:22:35.220Z,27.29
2018-05-15T07:23:35.028Z,27.42
2018-05-15T07:24:34.763Z,27.45
2018-05-15T07:25:34.519Z,27.45
2018-05-15T07:26:35.697Z,27.58
2018-05-15T07:27:35.645Z,27.71
2018-05-15T07:29:15.769Z,28.11
2018-05-15T07:30:36.554Z,28.25
2018-05-15T07:31:37.018Z,28.02
2018-05-15T07:32:36.821Z,27.95
2018-05-15T07:33:58.716Z,28.04
2018-05-15T07:34:58.442Z,28.10
2018-05-15T07:35:58.900Z,28.15
2018-05-15T07:36:58.418Z,28.38
2018-05-15T07:37:59.124Z,28.66
2018-05-15T07:38:57.848Z,28.79
2018-05-15T07:39:58.394Z,28.93
2018-05-15T07:40:58.144Z,28.94
2018-05-15T07:41:57.993Z,29.02
2018-05-15T07:42:59.086Z,28.97
2018-05-15T07:43:58.260Z,29.05
2018-05-15T07:44:58.467Z,29.20
2018-05-15T07:45:58.211Z,29.49
2018-05-15T07:46:58.986Z,29.79
2018-05-15T07:47:58.276Z,29.95
2018-05-15T07:48:58.359Z,29.91
2018-05-15T07:49:58.642Z,29.88
2018-05-15T07:50:58.475Z,29.93
2018-05-15T07:51:58.758Z,30.18
2018-05-15T07:52:59.323Z,30.43
2018-05-15T07:53:59.133Z,30.47
2018-05-15T07:54:58.886Z,30.39
2018-05-15T07:55:58.678Z,30.53
2018-05-15T07:56:59.095Z,30.46
2018-05-15T07:57:58.824Z,30.31
2018-05-15T07:58:59.616Z,30.35
2018-05-15T07:59:59.432Z,30.61
2018-05-15T08:01:19.295Z,30.92
2018-05-15T08:02:20.027Z,31.18
2018-05-15T08:03:19.590Z,31.22
2018-05-15T08:04:19.350Z,30.62
2018-05-15T08:05:20.451Z,30.65
2018-05-15T08:06:20.265Z,30.53
2018-05-15T08:07:20.448Z,30.57
2018-05-15T08:08:21.643Z,30.66
2018-05-15T08:09:19.418Z,30.94
2018-05-15T08:10:20.089Z,31.24
2018-05-15T08:11:19.726Z,31.36
2018-05-15T08:12:19.891Z,31.54
2018-05-15T08:13:19.776Z,31.40
2018-05-15T08:14:19.541Z,30.80
2018-05-15T08:15:40.296Z,30.32
2018-05-15T08:16:41.092Z,30.34
2018-05-15T08:17:42.215Z,30.05
2018-05-15T08:18:41.107Z,30.18
2018-05-15T08:19:40.950Z,30.55
2018-05-15T08:20:40.654Z,30.80
2018-05-15T08:21:40.702Z,30.96
2018-05-15T08:22:40.763Z,31.09
2018-05-15T08:23:40.572Z,31.21
2018-05-15T08:24:41.223Z,31.17
2018-05-15T08:25:41.166Z,31.15
2018-05-15T08:26:41.327Z,31.17
2018-05-15T08:27:41.158Z,31.37
2018-05-15T08:28:41.421Z,31.70
2018-05-15T08:29:40.349Z,31.05
2018-05-15T08:30:41.201Z,30.24
2018-05-15T08:31:41.401Z,30.13
2018-05-15T08:32:41.206Z,30.06
2018-05-15T08:33:41.048Z,30.27
2018-05-15T08:34:40.853Z,30.37
2018-05-15T08:35:40.921Z,30.69
2018-05-15T08:36:41.172Z,30.57
2018-05-15T08:37:41.232Z,30.53
2018-05-15T08:38:41.398Z,30.94
2018-05-15T08:40:01.273Z,30.70
2018-05-15T08:41:25.467Z,31.24
2018-05-15T08:42:25.804Z,31.62
2018-05-15T08:43:26.200Z,31.92
2018-05-15T08:44:26.313Z,32.23
2018-05-15T08:45:25.758Z,32.18
2018-05-15T08:46:25.942Z,32.30
2018-05-15T08:47:46.972Z,32.52
2018-05-15T08:48:46.667Z,32.74
2018-05-15T08:49:46.887Z,31.93
2018-05-15T08:50:46.747Z,31.69
2018-05-15T08:51:46.967Z,31.96
2018-05-15T08:52:46.790Z,32.31
2018-05-15T08:53:47.087Z,32.18
2018-05-15T08:55:41.057Z,31.62
2018-05-15T08:56:41.862Z,31.42
2018-05-15T08:57:41.604Z,31.14
2018-05-15T08:58:41.459Z,31.37
2018-05-15T08:59:41.753Z,31.76
2018-05-15T09:00:41.923Z,32.14
2018-05-15T09:01:42.022Z,32.49
2018-05-15T09:02:42.092Z,32.75
2018-05-15T09:03:41.268Z,33.12
2018-05-15T09:04:42.069Z,33.49
2018-05-15T09:05:42.136Z,33.89
2018-05-15T09:06:40.873Z,33.95
2018-05-15T09:07:42.160Z,33.62
2018-05-15T09:08:41.719Z,33.50
2018-05-15T09:09:41.899Z,33.32
2018-05-15T09:10:42.045Z,33.30
2018-05-15T09:12:03.117Z,32.96
2018-05-15T09:13:02.960Z,33.11
2018-05-15T09:14:02.984Z,33.58
2018-05-15T09:15:03.288Z,33.47
2018-05-15T09:16:04.064Z,33.57
2018-05-15T09:17:05.213Z,33.71
2018-05-15T09:18:05.869Z,33.57
2018-05-15T09:19:05.564Z,33.94
2018-05-15T09:20:06.024Z,34.10
2018-05-15T09:21:05.013Z,33.37
2018-05-15T09:22:04.559Z,33.11
2018-05-15T09:23:04.778Z,32.96
2018-05-15T09:24:03.056Z,33.19
2018-05-15T09:25:24.277Z,33.52
2018-05-15T09:26:45.657Z,32.77
2018-05-15T09:27:46.176Z,32.82
2018-05-15T09:28:45.375Z,33.07
2018-05-15T09:29:45.513Z,32.95
2018-05-15T09:30:45.300Z,32.96
2018-05-15T09:31:45.399Z,33.27
2018-05-15T09:32:45.686Z,33.34
2018-05-15T09:33:46.550Z,33.37
2018-05-15T09:34:47.181Z,33.46
2018-05-15T09:35:45.489Z,33.42
2018-05-15T09:36:45.732Z,33.49
2018-05-15T09:37:45.818Z,33.39
2018-05-15T09:38:45.196Z,33.32
2018-05-15T09:39:45.144Z,33.12
2018-05-15T09:40:44.961Z,33.11
2018-05-15T09:41:44.810Z,33.47
2018-05-15T09:42:46.429Z,33.17
2018-05-15T09:43:45.649Z,33.14
2018-05-15T09:45:06.368Z,32.83
2018-05-15T09:46:07.602Z,32.67
2018-05-15T09:47:06.521Z,32.78
2018-05-15T09:48:28.681Z,33.01
2018-05-15T09:49:29.111Z,33.40
2018-05-15T09:50:49.297Z,33.68
2018-05-15T09:51:49.287Z,33.77
2018-05-15T09:52:49.526Z,33.50
2018-05-15T09:53:49.630Z,33.34
2018-05-15T09:54:49.604Z,33.23
2018-05-15T09:55:51.583Z,33.31
2018-05-15T09:56:50.584Z,32.75
2018-05-15T09:57:49.609Z,32.27
2018-05-15T09:59:09.835Z,32.49
2018-05-15T10:00:10.494Z,32.90
2018-05-15T10:01:10.641Z,32.87
2018-05-15T10:02:10.837Z,32.97
2018-05-15T10:03:10.835Z,33.05
2018-05-15T10:04:10.690Z,33.28
2018-05-15T10:05:32.083Z,33.74
2018-05-15T10:06:32.006Z,33.80
2018-05-15T10:07:32.043Z,33.59
2018-05-15T10:08:31.874Z,33.69
2018-05-15T10:09:32.965Z,33.74
2018-05-15T10:10:32.265Z,33.89
2018-05-15T10:11:32.329Z,33.83
2018-05-15T10:13:14.244Z,34.35
2018-05-15T10:14:14.033Z,34.42
2018-05-15T10:15:34.717Z,34.40
2018-05-15T10:16:35.410Z,34.62
2018-05-15T10:17:56.405Z,34.57
2018-05-15T10:18:56.627Z,34.97
2018-05-15T10:19:56.782Z,35.26
2018-05-15T10:20:56.737Z,35.29
2018-05-15T10:21:56.892Z,35.15
2018-05-15T10:22:56.934Z,34.90
2018-05-15T10:23:56.558Z,34.80
2018-05-15T10:24:56.495Z,34.75
2018-05-15T10:25:56.840Z,34.61
2018-05-15T10:26:57.205Z,34.42
2018-05-15T10:27:56.950Z,34.42
2018-05-15T10:28:57.152Z,34.54
2018-05-15T10:29:56.948Z,34.83
2018-05-15T10:30:57.159Z,35.12
2018-05-15T10:31:56.233Z,35.24
2018-05-15T10:32:57.350Z,34.78
2018-05-15T10:33:56.487Z,34.06
2018-05-15T10:34:56.836Z,33.53
2018-05-15T10:36:17.229Z,33.12
2018-05-15T10:37:18.573Z,33.14
2018-05-15T10:38:17.284Z,32.77
2018-05-15T10:39:39.013Z,32.80
2018-05-15T10:40:40.270Z,32.85
2018-05-15T10:41:39.331Z,32.86
2018-05-15T10:42:39.485Z,33.01
2018-05-15T10:43:39.694Z,33.39
2018-05-15T10:44:39.862Z,33.74
2018-05-15T10:45:39.645Z,34.02
2018-05-15T10:46:39.490Z,34.10
2018-05-15T10:47:39.719Z,34.18
2018-05-15T10:48:39.862Z,34.43
2018-05-15T10:50:00.611Z,34.62
2018-05-15T10:51:01.878Z,34.58
2018-05-15T10:52:21.404Z,34.97
2018-05-15T10:53:22.226Z,34.92
2018-05-15T10:54:22.087Z,34.90
2018-05-15T10:55:22.105Z,35.17
2018-05-15T10:56:21.948Z,35.05
2018-05-15T10:57:21.726Z,35.02
2018-05-15T10:58:21.883Z,34.89
2018-05-15T10:59:21.777Z,34.58
2018-05-15T11:00:23.475Z,34.25
2018-05-15T11:01:23.053Z,34.38
2018-05-15T11:02:43.705Z,34.48
2018-05-15T11:03:44.315Z,34.57
2018-05-15T11:04:44.748Z,34.99
2018-05-15T11:06:05.229Z,35.15
2018-05-15T11:07:05.380Z,35.24
2018-05-15T11:08:05.552Z,34.88
2018-05-15T11:09:05.457Z,34.27
2018-05-15T11:10:26.449Z,33.65
2018-05-15T11:11:27.504Z,34.03
2018-05-15T11:12:27.425Z,34.42
2018-05-15T11:13:27.319Z,34.33
2018-05-15T11:14:27.563Z,34.50
2018-05-15T11:15:26.282Z,34.67
2018-05-15T11:16:27.027Z,35.07
2018-05-15T11:17:26.750Z,35.46
2018-05-15T11:18:26.391Z,35.61
2018-05-15T11:19:27.130Z,35.55
2018-05-15T11:20:26.961Z,35.61
2018-05-15T11:21:26.857Z,35.70
2018-05-15T11:22:28.036Z,35.64
2018-05-15T11:24:08.114Z,36.00
2018-05-15T11:25:09.206Z,35.95
2018-05-15T11:26:09.010Z,36.28
2018-05-15T11:27:08.729Z,36.00
2018-05-15T11:28:08.431Z,35.85
2018-05-15T11:29:08.550Z,35.14
2018-05-15T11:30:30.809Z,34.33
2018-05-15T11:31:29.700Z,33.74
2018-05-15T11:32:29.965Z,33.98
2018-05-15T11:33:30.146Z,34.05
2018-05-15T11:34:29.080Z,34.36
2018-05-15T11:35:30.763Z,34.14
2018-05-15T11:36:50.112Z,33.92
2018-05-15T11:37:50.924Z,34.13
2018-05-15T11:38:51.148Z,34.20
2018-05-15T11:39:51.305Z,34.61
2018-05-15T11:40:50.486Z,35.17
2018-05-15T11:41:50.300Z,35.55
2018-05-15T11:42:50.101Z,35.90
2018-05-15T11:43:51.188Z,35.95
2018-05-15T11:44:51.095Z,36.20
2018-05-15T11:45:51.163Z,36.59
2018-05-15T11:46:51.094Z,36.88
2018-05-15T11:47:51.747Z,36.35
2018-05-15T11:48:51.639Z,35.63
2018-05-15T11:49:50.742Z,35.70
2018-05-15T11:50:52.036Z,35.53
2018-05-15T11:51:52.585Z,35.27
2018-05-15T11:52:51.191Z,35.12
2018-05-15T11:53:51.262Z,35.18
2018-05-15T11:54:51.771Z,35.48
2018-05-15T11:55:50.700Z,35.82
2018-05-15T11:56:50.548Z,35.45
2018-05-15T11:57:50.863Z,35.30
2018-05-15T11:58:51.141Z,34.93
2018-05-15T11:59:51.507Z,34.74
2018-05-15T12:00:50.670Z,34.23
2018-05-15T12:01:50.612Z,34.36
2018-05-15T12:02:50.860Z,34.71
2018-05-15T12:03:52.522Z,34.92
2018-05-15T12:04:51.610Z,34.71
2018-05-15T12:05:50.413Z,34.97
2018-05-15T12:06:50.800Z,35.10
2018-05-15T12:07:50.792Z,35.12
2018-05-15T12:08:51.084Z,35.46
2018-05-15T12:09:50.792Z,35.68
2018-05-15T12:11:32.420Z,35.63
2018-05-15T12:12:33.357Z,35.79
2018-05-15T12:13:33.726Z,36.12
2018-05-15T12:14:32.641Z,36.55
2018-05-15T12:15:32.446Z,36.70
2018-05-15T12:16:33.463Z,36.33
2018-05-15T12:17:33.226Z,36.08
2018-05-15T12:18:33.351Z,35.73
2018-05-15T12:19:33.210Z,35.10
2018-05-15T12:20:33.161Z,34.78
2018-05-15T12:21:33.087Z,34.80
2018-05-15T12:22:33.313Z,35.10
2018-05-15T12:23:33.000Z,35.11
2018-05-15T12:24:32.770Z,34.80
2018-05-15T12:25:32.835Z,34.25
2018-05-15T12:26:54.055Z,34.08
2018-05-15T12:28:35.241Z,34.43
2018-05-15T12:29:36.227Z,34.66
2018-05-15T12:30:37.090Z,34.89
2018-05-15T12:31:36.391Z,35.02
2018-05-15T12:32:35.295Z,35.22
2018-05-15T12:33:36.179Z,35.42
2018-05-15T12:34:36.460Z,35.33
2018-05-15T12:35:35.690Z,35.45
2018-05-15T12:36:35.788Z,35.08
2018-05-15T12:37:35.875Z,34.47
2018-05-15T12:38:35.966Z,33.58
2018-05-15T12:39:35.891Z,33.08
2018-05-15T12:40:57.012Z,33.45
2018-05-15T12:41:57.101Z,33.77
2018-05-15T12:42:57.517Z,34.17
2018-05-15T12:44:18.036Z,34.40
2018-05-15T12:45:18.755Z,34.05
2018-05-15T12:46:18.543Z,33.57
2018-05-15T12:47:18.417Z,33.77
2018-05-15T12:48:59.720Z,34.05
2018-05-15T12:50:00.623Z,34.39
2018-05-15T12:51:00.380Z,34.39
2018-05-15T12:52:00.635Z,33.99
2018-05-15T12:53:00.746Z,33.77
2018-05-15T12:54:00.667Z,33.79
2018-05-15T12:55:00.460Z,33.39
2018-05-15T12:56:00.170Z,32.96
2018-05-15T12:57:00.278Z,32.93
2018-05-15T12:58:00.411Z,33.17
2018-05-15T12:59:00.535Z,33.61
2018-05-15T13:00:00.323Z,33.86
2018-05-15T13:01:00.504Z,33.68
2018-05-15T13:02:00.351Z,33.79
2018-05-15T13:03:01.090Z,33.99
2018-05-15T13:04:20.343Z,34.08
2018-05-15T13:05:21.556Z,34.21
2018-05-15T13:06:21.471Z,34.08
2018-05-15T13:07:21.353Z,34.30
2018-05-15T13:08:21.609Z,34.62
2018-05-15T13:09:41.861Z,34.89
2018-05-15T13:10:41.854Z,34.96
2018-05-15T13:11:41.814Z,34.93
2018-05-15T13:12:42.129Z,34.92
2018-05-15T13:13:42.475Z,34.95
2018-05-15T13:14:42.633Z,35.02
2018-05-15T13:15:42.462Z,35.04
2018-05-15T13:16:43.634Z,34.88
2018-05-15T13:17:45.418Z,34.89
2018-05-15T13:19:03.069Z,34.75
2018-05-15T13:20:06.208Z,34.67
2018-05-15T13:21:03.213Z,34.54
2018-05-15T13:22:03.152Z,34.36
2018-05-15T13:23:03.044Z,34.23
2018-05-15T13:24:04.035Z,33.92
2018-05-15T13:25:04.238Z,33.53
2018-05-15T13:26:03.409Z,32.93
2018-05-15T13:27:03.308Z,32.38
2018-05-15T13:28:03.344Z,32.38
2018-05-15T13:29:24.630Z,32.46
2018-05-15T13:30:24.564Z,32.77
2018-05-15T13:31:24.655Z,32.85
2018-05-15T13:32:46.286Z,32.92
2018-05-15T13:33:47.224Z,33.11